createdAt,value
2022-09-07T00:00:05.978Z,20.50
2022-09-07T00:02:32.801Z,18.50
2022-09-07T00:07:26.795Z,18.00
2022-09-07T00:12:20.977Z,18.70
2022-09-07T00:14:48.004Z,18.50
2022-09-07T00:17:14.909Z,18.60
2022-09-07T00:19:41.777Z,17.80
2022-09-07T00:22:08.539Z,17.80
2022-09-07T00:27:02.500Z,17.90
2022-09-07T00:29:29.288Z,17.90
2022-09-07T00:36:50.587Z,17.90
2022-09-07T00:44:44.204Z,17.80
2022-09-07T00:47:23.178Z,19.20
2022-09-07T00:49:55.084Z,20.20
2022-09-07T00:52:23.423Z,18.80
2022-09-07T00:54:55.404Z,18.80
2022-09-07T00:57:22.965Z,18.50
2022-09-07T00:59:52.834Z,19.00
2022-09-07T01:02:20.252Z,20.50
2022-09-07T01:04:51.110Z,18.00
2022-09-07T01:07:18.607Z,18.00
2022-09-07T01:09:47.252Z,18.10
2022-09-07T01:14:45.318Z,18.20
2022-09-07T01:17:39.307Z,20.70
2022-09-07T01:22:52.327Z,20.30
2022-09-07T01:26:04.196Z,18.50
2022-09-07T01:28:35.305Z,19.30
2022-09-07T01:31:39.082Z,18.40
2022-09-07T01:34:11.061Z,18.00
2022-09-07T01:36:49.808Z,18.00
2022-09-07T01:39:19.768Z,19.20
2022-09-07T01:41:58.436Z,18.10
2022-09-07T01:44:34.817Z,19.20
2022-09-07T01:47:27.090Z,18.10
2022-09-07T01:50:17.340Z,19.10
2022-09-07T01:53:17.380Z,18.90
2022-09-07T01:55:56.269Z,19.50
2022-09-07T01:58:51.695Z,19.60
2022-09-07T02:01:28.826Z,18.70
2022-09-07T02:04:07.492Z,18.60
2022-09-07T02:06:50.983Z,19.40
2022-09-07T02:09:32.664Z,19.90
2022-09-07T02:12:03.431Z,18.50
2022-09-07T02:14:42.890Z,18.60
2022-09-07T02:17:22.406Z,19.40
2022-09-07T02:19:54.133Z,17.20
2022-09-07T02:22:28.458Z,18.10
2022-09-07T02:24:59.876Z,18.50
2022-09-07T02:27:41.483Z,17.40
2022-09-07T02:30:08.897Z,17.50
2022-09-07T02:32:35.804Z,17.90
2022-09-07T02:44:52.029Z,18.00
2022-09-07T02:47:33.323Z,17.90
2022-09-07T02:50:30.631Z,18.60
2022-09-07T02:53:22.297Z,17.30
2022-09-07T02:56:29.834Z,17.30
2022-09-07T02:59:07.387Z,17.70
2022-09-07T03:01:57.028Z,19.00
2022-09-07T03:04:57.383Z,18.50
2022-09-07T03:07:42.189Z,18.80
2022-09-07T03:12:47.584Z,18.60
2022-09-07T03:15:25.815Z,17.50
2022-09-07T03:17:53.530Z,19.50
2022-09-07T03:20:21.650Z,18.50
2022-09-07T03:22:50.002Z,19.80
2022-09-07T03:25:17.474Z,19.60
2022-09-07T03:30:12.857Z,19.40
2022-09-07T03:32:40.217Z,18.80
2022-09-07T03:35:08.271Z,17.30
2022-09-07T03:37:38.554Z,17.10
2022-09-07T03:40:07.924Z,17.20
2022-09-07T03:42:35.339Z,17.30
2022-09-07T03:47:29.342Z,19.50
2022-09-07T03:49:56.184Z,17.20
2022-09-07T03:54:50.153Z,19.60
2022-09-07T03:57:17.041Z,17.70
2022-09-07T04:02:11.109Z,17.10
2022-09-07T04:04:37.915Z,18.60
2022-09-07T04:07:04.997Z,17.00
2022-09-07T04:09:31.797Z,18.00
2022-09-07T04:11:58.585Z,19.30
2022-09-07T04:16:52.698Z,16.90
2022-09-07T04:19:19.514Z,17.30
2022-09-07T04:24:15.515Z,16.80
2022-09-07T04:26:43.557Z,16.80
2022-09-07T04:29:11.640Z,19.10
2022-09-07T04:31:39.427Z,19.00
2022-09-07T04:34:07.113Z,17.80
2022-09-07T04:36:34.108Z,17.20
2022-09-07T04:39:03.387Z,17.70
2022-09-07T04:41:31.780Z,19.10
2022-09-07T04:44:01.176Z,17.70
2022-09-07T04:46:31.135Z,17.70
2022-09-07T04:49:00.452Z,17.70
2022-09-07T04:51:29.801Z,17.80
2022-09-07T04:53:58.258Z,17.70
2022-09-07T04:56:25.675Z,18.00
2022-09-07T04:58:52.538Z,17.80
2022-09-07T05:01:22.536Z,17.60
2022-09-07T05:03:50.172Z,18.90
2022-09-07T05:06:18.936Z,19.10
2022-09-07T05:08:49.707Z,17.90
2022-09-07T05:11:17.820Z,17.90
2022-09-07T05:13:45.145Z,18.40
2022-09-07T05:16:14.523Z,17.80
2022-09-07T05:18:41.682Z,18.30
2022-09-07T05:21:14.100Z,17.80
2022-09-07T05:23:41.389Z,18.80
2022-09-07T05:26:09.396Z,17.70
2022-09-07T05:28:36.996Z,17.70
2022-09-07T05:39:06.427Z,16.90
2022-09-07T05:41:33.811Z,18.90
2022-09-07T05:46:47.505Z,16.50
2022-09-07T05:49:14.260Z,17.00
2022-09-07T05:54:08.315Z,16.80
2022-09-07T05:56:36.268Z,17.70
2022-09-07T05:59:03.969Z,18.00
2022-09-07T06:08:54.016Z,16.40
2022-09-07T06:11:25.472Z,17.50
2022-09-07T06:13:53.066Z,16.30
2022-09-07T06:18:49.476Z,16.40
2022-09-07T06:21:19.669Z,17.50
2022-09-07T06:23:47.448Z,16.30
2022-09-07T06:26:16.318Z,16.70
2022-09-07T06:28:47.680Z,16.90
2022-09-07T06:31:21.557Z,17.60
2022-09-07T06:33:49.060Z,16.80
2022-09-07T06:36:21.330Z,17.10
2022-09-07T06:38:49.172Z,19.00
2022-09-07T06:44:08.077Z,18.60
2022-09-07T06:49:23.533Z,17.80
2022-09-07T06:51:50.314Z,19.30
2022-09-07T06:57:09.071Z,19.10
2022-09-07T06:59:37.414Z,18.80
2022-09-07T07:02:10.148Z,17.70
2022-09-07T07:07:12.482Z,19.70
2022-09-07T07:09:39.703Z,17.90
2022-09-07T07:12:06.597Z,17.90
2022-09-07T07:14:34.617Z,17.60
2022-09-07T07:19:30.361Z,20.10
2022-09-07T07:27:11.344Z,18.40
2022-09-07T07:29:38.229Z,18.20
2022-09-07T07:32:05.265Z,19.40
2022-09-07T07:37:17.254Z,20.80
2022-09-07T07:42:31.526Z,19.10
2022-09-07T07:47:50.023Z,18.60
2022-09-07T07:50:33.722Z,21.70
2022-09-07T07:55:47.837Z,21.80
2022-09-07T07:58:14.688Z,19.70
2022-09-07T08:00:54.411Z,20.50
2022-09-07T08:03:23.468Z,20.60
2022-09-07T08:10:46.043Z,19.30
2022-09-07T08:15:44.513Z,20.20
2022-09-07T08:18:12.497Z,19.10
2022-09-07T08:20:40.519Z,21.10
2022-09-07T08:25:35.536Z,20.40
2022-09-07T08:28:02.685Z,19.70
2022-09-07T08:37:50.947Z,22.30
2022-09-07T08:40:19.168Z,19.70
2022-09-07T08:45:20.810Z,24.10
2022-09-07T08:47:52.581Z,22.80
2022-09-07T08:50:23.092Z,22.60
2022-09-07T08:53:16.992Z,22.60
2022-09-07T08:56:09.617Z,21.90
2022-09-07T08:58:51.354Z,20.70
2022-09-07T09:01:36.708Z,21.70
2022-09-07T09:06:11.594Z,22.00
2022-09-07T09:07:21.804Z,21.10
2022-09-07T09:10:05.944Z,23.60
2022-09-07T09:12:57.604Z,22.50
2022-09-07T09:15:30.910Z,21.30
2022-09-07T09:18:04.789Z,23.80
2022-09-07T09:20:45.407Z,21.50
2022-09-07T09:23:17.726Z,23.70
2022-09-07T09:25:54.011Z,23.70
2022-09-07T09:28:21.701Z,23.20
2022-09-07T09:30:49.041Z,24.90
2022-09-07T09:33:21.463Z,23.20
2022-09-07T09:35:50.812Z,22.60
2022-09-07T09:38:32.005Z,22.50
2022-09-07T09:41:13.108Z,25.60
2022-09-07T09:43:56.648Z,24.00
2022-09-07T09:46:31.760Z,25.30
2022-09-07T09:49:04.127Z,24.90
2022-09-07T09:54:40.228Z,23.30
2022-09-07T09:57:07.096Z,23.30
2022-09-07T10:05:30.039Z,26.20
2022-09-07T10:07:57.044Z,24.70
2022-09-07T10:10:25.292Z,24.80
2022-09-07T10:12:54.262Z,25.50
2022-09-07T10:15:41.701Z,25.10
2022-09-07T10:18:19.248Z,25.80
2022-09-07T10:20:46.057Z,26.30
2022-09-07T10:23:22.195Z,26.40
2022-09-07T10:25:49.093Z,26.20
2022-09-07T10:28:22.079Z,26.10
2022-09-07T10:31:17.095Z,26.00
2022-09-07T10:34:25.666Z,25.60
2022-09-07T10:36:59.096Z,26.20
2022-09-07T10:39:30.567Z,26.30
2022-09-07T10:42:09.678Z,26.90
2022-09-07T10:44:58.083Z,26.60
2022-09-07T10:48:00.436Z,27.20
2022-09-07T10:51:13.418Z,27.50
2022-09-07T10:53:43.500Z,28.50
2022-09-07T10:56:25.694Z,28.00
2022-09-07T10:59:01.736Z,28.60
2022-09-07T11:01:51.466Z,27.60
2022-09-07T11:05:10.413Z,27.60
2022-09-07T11:08:07.643Z,27.00
2022-09-07T11:11:01.245Z,28.00
2022-09-07T11:13:40.987Z,28.00
2022-09-07T11:19:38.164Z,28.20
2022-09-07T11:22:42.346Z,28.00
2022-09-07T11:25:34.815Z,28.20
2022-09-07T11:28:16.326Z,26.70
2022-09-07T11:30:49.885Z,29.30
2022-09-07T11:33:24.146Z,27.60
2022-09-07T11:35:58.600Z,28.50
2022-09-07T11:38:34.248Z,28.50
2022-09-07T11:41:16.023Z,28.70
2022-09-07T11:43:48.630Z,28.70
2022-09-07T11:46:34.562Z,28.50
2022-09-07T11:49:04.447Z,28.80
2022-09-07T11:51:46.737Z,29.20
2022-09-07T11:54:19.724Z,29.40
2022-09-07T11:56:54.884Z,29.00
2022-09-07T11:59:48.906Z,28.90
2022-09-07T12:02:58.884Z,30.50
2022-09-07T12:05:41.584Z,26.80
2022-09-07T12:08:33.919Z,29.80
2022-09-07T12:11:24.761Z,31.40
2022-09-07T12:14:19.339Z,29.90
2022-09-07T12:16:49.036Z,30.00
2022-09-07T12:19:22.085Z,29.70
2022-09-07T12:21:57.680Z,28.50
2022-09-07T12:24:45.107Z,29.40
2022-09-07T12:27:31.793Z,29.50
2022-09-07T12:29:58.494Z,29.70
2022-09-07T12:32:54.579Z,30.30
2022-09-07T12:35:37.129Z,30.80
2022-09-07T12:38:24.987Z,31.00
2022-09-07T12:41:01.338Z,30.90
2022-09-07T12:43:28.003Z,30.70
2022-09-07T12:45:56.600Z,30.90
2022-09-07T12:48:29.654Z,31.20
2022-09-07T12:54:42.462Z,31.40
2022-09-07T12:57:49.376Z,31.00
2022-09-07T13:00:24.239Z,30.60
2022-09-07T13:03:49.406Z,30.00
2022-09-07T13:06:14.683Z,30.20
2022-09-07T13:08:50.373Z,30.60
2022-09-07T13:11:20.233Z,30.90
2022-09-07T13:14:02.650Z,30.60
2022-09-07T13:19:50.966Z,30.60
2022-09-07T13:22:33.059Z,32.20
2022-09-07T13:25:03.277Z,30.80
2022-09-07T13:27:52.341Z,30.20
2022-09-07T13:30:46.816Z,29.50
2022-09-07T13:33:25.958Z,29.30
2022-09-07T13:36:09.234Z,29.70
2022-09-07T13:38:36.728Z,30.50
2022-09-07T13:41:35.849Z,30.90
2022-09-07T13:44:03.982Z,30.80
2022-09-07T13:47:04.733Z,31.10
2022-09-07T13:49:40.333Z,31.20
2022-09-07T13:52:18.393Z,31.00
2022-09-07T13:55:14.569Z,30.50
2022-09-07T13:58:07.654Z,30.40
2022-09-07T14:00:34.927Z,30.40
2022-09-07T14:03:07.294Z,30.40
2022-09-07T14:05:34.193Z,30.40
2022-09-07T14:08:00.976Z,30.70
2022-09-07T14:10:28.219Z,30.90
2022-09-07T14:13:12.320Z,30.80
2022-09-07T14:15:43.031Z,30.90
2022-09-07T14:18:19.861Z,31.00
2022-09-07T14:20:52.177Z,31.10
2022-09-07T14:23:30.761Z,31.10
2022-09-07T14:26:20.389Z,30.80
2022-09-07T14:28:50.667Z,30.30
2022-09-07T14:31:20.009Z,30.00
2022-09-07T14:33:58.166Z,29.70
2022-09-07T14:36:44.579Z,29.50
2022-09-07T14:39:17.017Z,29.40
2022-09-07T14:41:44.725Z,29.60
2022-09-07T14:44:38.953Z,29.90
2022-09-07T14:47:29.203Z,30.20
2022-09-07T14:49:59.738Z,30.40
2022-09-07T14:52:43.043Z,30.80
2022-09-07T14:55:34.655Z,30.90
2022-09-07T14:58:21.813Z,31.00
2022-09-07T15:04:02.279Z,31.10
2022-09-07T15:09:38.539Z,30.90
2022-09-07T15:12:36.441Z,31.10
2022-09-07T15:15:35.439Z,31.10
2022-09-07T15:18:08.713Z,31.30
2022-09-07T15:20:37.826Z,31.30
2022-09-07T15:23:13.543Z,31.30
2022-09-07T15:25:45.409Z,31.30
2022-09-07T15:34:11.785Z,31.10
2022-09-07T15:36:40.971Z,32.10
2022-09-07T15:39:14.568Z,30.50
2022-09-07T15:41:42.764Z,30.40
2022-09-07T15:44:09.589Z,30.20
2022-09-07T15:46:37.196Z,30.20
2022-09-07T15:49:04.720Z,30.20
2022-09-07T15:54:20.670Z,30.10
2022-09-07T15:59:35.151Z,29.70
2022-09-07T16:02:02.652Z,29.50
2022-09-07T16:04:29.899Z,29.40
2022-09-07T16:06:56.746Z,29.20
2022-09-07T16:09:23.711Z,28.90
2022-09-07T16:11:50.982Z,28.70
2022-09-07T16:14:18.472Z,28.40
2022-09-07T16:19:34.985Z,28.00
2022-09-07T16:22:03.218Z,28.00
2022-09-07T16:24:30.360Z,28.00
2022-09-07T16:26:57.146Z,28.10
2022-09-07T16:29:24.677Z,28.10
2022-09-07T16:34:39.935Z,28.00
2022-09-07T16:37:07.207Z,27.90
2022-09-07T16:39:34.343Z,27.90
2022-09-07T16:42:01.161Z,27.80
2022-09-07T16:44:27.886Z,27.80
2022-09-07T16:46:54.997Z,27.60
2022-09-07T16:49:22.039Z,27.60
2022-09-07T16:51:49.800Z,27.50
2022-09-07T16:54:17.396Z,27.50
2022-09-07T16:56:44.264Z,27.50
2022-09-07T16:59:16.016Z,27.40
2022-09-07T17:01:42.985Z,27.40
2022-09-07T17:04:11.422Z,27.30
2022-09-07T17:06:39.871Z,26.90
2022-09-07T17:09:07.226Z,27.10
2022-09-07T17:11:35.833Z,27.10
2022-09-07T17:14:05.394Z,26.20
2022-09-07T17:16:37.477Z,26.90
2022-09-07T17:21:53.561Z,26.00
2022-09-07T17:24:20.353Z,26.70
2022-09-07T17:26:47.491Z,26.80
2022-09-07T17:29:14.516Z,26.80
2022-09-07T17:34:30.041Z,27.00
2022-09-07T17:36:57.110Z,26.90
2022-09-07T17:39:23.923Z,26.80
2022-09-07T17:41:54.487Z,26.70
2022-09-07T17:44:23.231Z,26.70
2022-09-07T17:46:50.539Z,26.40
2022-09-07T17:49:17.704Z,26.60
2022-09-07T17:51:45.571Z,26.00
2022-09-07T17:54:15.525Z,26.60
2022-09-07T17:56:43.168Z,26.30
2022-09-07T18:01:57.650Z,25.30
2022-09-07T18:04:24.633Z,24.80
2022-09-07T18:06:51.652Z,24.50
2022-09-07T18:09:19.651Z,24.70
2022-09-07T18:11:48.601Z,24.30
2022-09-07T18:14:17.139Z,25.00
2022-09-07T18:16:45.606Z,24.30
2022-09-07T18:19:13.086Z,23.00
2022-09-07T18:21:41.933Z,24.10
2022-09-07T18:24:16.613Z,24.10
2022-09-07T18:26:44.763Z,24.70
2022-09-07T18:29:28.175Z,24.30
2022-09-07T18:31:56.565Z,24.20
2022-09-07T18:34:23.523Z,22.00
2022-09-07T18:36:50.414Z,23.60
2022-09-07T18:39:17.529Z,22.00
2022-09-07T18:41:44.256Z,22.90
2022-09-07T18:46:57.933Z,22.00
2022-09-07T18:49:25.076Z,24.00
2022-09-07T18:54:41.240Z,21.50
2022-09-07T18:57:08.719Z,23.90
2022-09-07T18:59:35.637Z,22.90
2022-09-07T19:02:04.907Z,22.20
2022-09-07T19:07:27.346Z,23.80
2022-09-07T19:09:55.818Z,21.80
2022-09-07T19:12:24.183Z,22.80
2022-09-07T19:14:51.113Z,23.60
2022-09-07T19:17:18.010Z,22.40
2022-09-07T19:19:44.995Z,23.80
2022-09-07T19:22:11.832Z,22.50
2022-09-07T19:24:38.575Z,21.60
2022-09-07T19:27:07.089Z,22.30
2022-09-07T19:29:33.861Z,20.60
2022-09-07T19:32:11.891Z,22.70
2022-09-07T19:34:43.361Z,20.90
2022-09-07T19:37:12.487Z,20.40
2022-09-07T19:39:39.716Z,20.50
2022-09-07T19:44:34.178Z,20.50
2022-09-07T19:49:28.913Z,20.40
2022-09-07T19:51:55.661Z,20.20
2022-09-07T19:54:22.513Z,20.80
2022-09-07T19:56:49.278Z,20.60
2022-09-07T19:59:17.994Z,20.60
2022-09-07T20:01:46.904Z,21.80
2022-09-07T20:04:20.398Z,21.60
2022-09-07T20:06:49.911Z,20.80
2022-09-07T20:09:19.907Z,22.40
2022-09-07T20:11:48.138Z,20.30
2022-09-07T20:14:19.045Z,22.30
2022-09-07T20:16:45.937Z,21.90
2022-09-07T20:19:14.859Z,22.40
2022-09-07T20:21:42.653Z,20.20
2022-09-07T20:24:12.174Z,19.90
2022-09-07T20:26:39.017Z,19.50
2022-09-07T20:36:51.641Z,19.60
2022-09-07T20:39:19.375Z,21.40
2022-09-07T20:44:14.371Z,21.60
2022-09-07T20:46:41.358Z,20.00
2022-09-07T20:51:36.226Z,19.20
2022-09-07T20:54:03.021Z,19.90
2022-09-07T20:56:30.267Z,21.50
2022-09-07T20:59:00.268Z,21.20
2022-09-07T21:01:28.635Z,20.10
2022-09-07T21:03:57.993Z,21.30
2022-09-07T21:06:26.131Z,20.00
2022-09-07T21:16:16.207Z,19.80
2022-09-07T21:18:44.123Z,20.80
2022-09-07T21:26:19.469Z,20.30
2022-09-07T21:31:13.361Z,19.30
2022-09-07T21:33:40.276Z,20.40
2022-09-07T21:36:12.368Z,19.00
2022-09-07T21:38:40.908Z,18.60
2022-09-07T21:41:09.536Z,18.90
2022-09-07T21:46:18.213Z,19.80
2022-09-07T21:48:45.954Z,19.80
2022-09-07T21:51:13.791Z,19.90
2022-09-07T21:56:11.099Z,20.70
2022-09-07T21:58:38.519Z,19.50
2022-09-07T22:01:11.608Z,18.60
2022-09-07T22:03:40.301Z,19.80
2022-09-07T22:06:08.331Z,18.70
2022-09-07T22:08:37.000Z,18.50
2022-09-07T22:11:12.590Z,19.80
2022-09-07T22:16:07.319Z,20.80
2022-09-07T22:18:35.781Z,20.30
2022-09-07T22:23:31.307Z,19.60
2022-09-07T22:25:58.052Z,19.40
2022-09-07T22:28:25.069Z,21.10
2022-09-07T22:30:54.412Z,19.20
2022-09-07T22:33:21.557Z,21.20
2022-09-07T22:43:09.808Z,18.60
2022-09-07T22:45:36.700Z,19.10
2022-09-07T22:50:32.136Z,20.00
2022-09-07T22:52:58.965Z,20.50
2022-09-07T23:07:42.197Z,21.50
2022-09-07T23:10:09.211Z,19.30
2022-09-07T23:12:36.413Z,19.20
2022-09-07T23:17:31.573Z,20.90
2022-09-07T23:19:58.312Z,19.90
2022-09-07T23:22:25.280Z,20.30
2022-09-07T23:24:51.992Z,19.30
2022-09-07T23:29:46.442Z,19.70
2022-09-07T23:32:13.231Z,18.90
2022-09-07T23:34:39.934Z,19.00
2022-09-07T23:44:29.404Z,20.90
2022-09-07T23:46:56.192Z,20.90
2022-09-07T23:56:44.384Z,19.60
2022-09-07T23:59:11.218Z,21.50
